sensor_id;sensor_type;location;lat;lon;timestamp;pressure;altitude;pressure_sealevel;temperature
49593;BMP280;35499;51.482;4.264;2023-04-06T00:00:59;101750.16;;;7.92
49593;BMP280;35499;51.482;4.264;2023-04-06T00:03:25;101744.19;;;7.91
49593;BMP280;35499;51.482;4.264;2023-04-06T00:05:50;101745.88;;;7.91
49593;BMP280;35499;51.482;4.264;2023-04-06T00:08:15;101735.66;;;7.91
49593;BMP280;35499;51.482;4.264;2023-04-06T00:10:41;101739.03;;;7.88
49593;BMP280;35499;51.482;4.264;2023-04-06T00:13:06;101739.03;;;7.88
49593;BMP280;35499;51.482;4.264;2023-04-06T00:15:33;101738.16;;;7.86
49593;BMP280;35499;51.482;4.264;2023-04-06T00:17:58;101733.03;;;7.85
49593;BMP280;35499;51.482;4.264;2023-04-06T00:20:24;101730.47;;;7.85
49593;BMP280;35499;51.482;4.264;2023-04-06T00:22:49;101725.31;;;7.84
49593;BMP280;35499;51.482;4.264;2023-04-06T00:25:15;101728.72;;;7.83
49593;BMP280;35499;51.482;4.264;2023-04-06T00:27:40;101723.59;;;7.83
49593;BMP280;35499;51.482;4.264;2023-04-06T00:30:07;101721.91;;;7.82
49593;BMP280;35499;51.482;4.264;2023-04-06T00:32:33;101721.06;;;7.81
49593;BMP280;35499;51.482;4.264;2023-04-06T00:34:59;101721.91;;;7.80
49593;BMP280;35499;51.482;4.264;2023-04-06T00:37:24;101719.34;;;7.80
49593;BMP280;35499;51.482;4.264;2023-04-06T00:39:49;101712.50;;;7.79
49593;BMP280;35499;51.482;4.264;2023-04-06T00:42:17;101712.53;;;7.81
49593;BMP280;35499;51.482;4.264;2023-04-06T00:44:50;101707.38;;;7.79
49593;BMP280;35499;51.482;4.264;2023-04-06T00:47:16;101692.03;;;7.79
49593;BMP280;35499;51.482;4.264;2023-04-06T00:49:41;101698.81;;;7.77
49593;BMP280;35499;51.482;4.264;2023-04-06T00:52:06;101690.31;;;7.78
49593;BMP280;35499;51.482;4.264;2023-04-06T00:54:32;101681.78;;;7.76
49593;BMP280;35499;51.482;4.264;2023-04-06T00:56:58;101682.66;;;7.77
49593;BMP280;35499;51.482;4.264;2023-04-06T00:59:23;101680.94;;;7.77
49593;BMP280;35499;51.482;4.264;2023-04-06T01:01:48;101683.50;;;7.76
49593;BMP280;35499;51.482;4.264;2023-04-06T01:04:14;101680.06;;;7.75
49593;BMP280;35499;51.482;4.264;2023-04-06T01:06:40;101680.06;;;7.74
49593;BMP280;35499;51.482;4.264;2023-04-06T01:09:05;101673.22;;;7.71
49593;BMP280;35499;51.482;4.264;2023-04-06T01:11:31;101673.19;;;7.70
49593;BMP280;35499;51.482;4.264;2023-04-06T01:13:56;101664.66;;;7.67
49593;BMP280;35499;51.482;4.264;2023-04-06T01:16:22;101668.03;;;7.66
49593;BMP280;35499;51.482;4.264;2023-04-06T01:18:47;101665.47;;;7.64
49593;BMP280;35499;51.482;4.264;2023-04-06T01:21:12;101656.91;;;7.62
49593;BMP280;35499;51.482;4.264;2023-04-06T01:23:45;101654.38;;;7.61
49593;BMP280;35499;51.482;4.264;2023-04-06T01:26:11;101654.38;;;7.61
49593;BMP280;35499;51.482;4.264;2023-04-06T01:28:37;101657.75;;;7.60
49593;BMP280;35499;51.482;4.264;2023-04-06T01:31:04;101648.38;;;7.60
49593;BMP280;35499;51.482;4.264;2023-04-06T01:33:29;101644.97;;;7.60
49593;BMP280;35499;51.482;4.264;2023-04-06T01:35:55;101639.84;;;7.58
49593;BMP280;35499;51.482;4.264;2023-04-06T01:38:21;101635.56;;;7.57
49593;BMP280;35499;51.482;4.264;2023-04-06T01:40:47;101643.22;;;7.57
49593;BMP280;35499;51.482;4.264;2023-04-06T01:43:12;101637.28;;;7.57
49593;BMP280;35499;51.482;4.264;2023-04-06T01:45:38;101637.25;;;7.55
49593;BMP280;35499;51.482;4.264;2023-04-06T01:48:03;101633.84;;;7.55
49593;BMP280;35499;51.482;4.264;2023-04-06T01:50:29;101626.19;;;7.55
49593;BMP280;35499;51.482;4.264;2023-04-06T01:52:54;101635.50;;;7.53
49593;BMP280;35499;51.482;4.264;2023-04-06T01:55:20;101637.25;;;7.54
49593;BMP280;35499;51.482;4.264;2023-04-06T01:57:45;101635.50;;;7.53
49593;BMP280;35499;51.482;4.264;2023-04-06T02:00:11;101630.44;;;7.54
49593;BMP280;35499;51.482;4.264;2023-04-06T02:02:36;101634.69;;;7.55
49593;BMP280;35499;51.482;4.264;2023-04-06T02:05:02;101624.47;;;7.55
49593;BMP280;35499;51.482;4.264;2023-04-06T02:07:27;101625.34;;;7.56
49593;BMP280;35499;51.482;4.264;2023-04-06T02:09:54;101628.75;;;7.56
49593;BMP280;35499;51.482;4.264;2023-04-06T02:12:20;101616.84;;;7.57
49593;BMP280;35499;51.482;4.264;2023-04-06T02:14:46;101619.41;;;7.57
49593;BMP280;35499;51.482;4.264;2023-04-06T02:17:11;101610.03;;;7.59
49593;BMP280;35499;51.482;4.264;2023-04-06T02:19:36;101607.50;;;7.60
49593;BMP280;35499;51.482;4.264;2023-04-06T02:22:03;101604.97;;;7.62
49593;BMP280;35499;51.482;4.264;2023-04-06T02:24:28;101609.22;;;7.64
49593;BMP280;35499;51.482;4.264;2023-04-06T02:26:53;101610.09;;;7.68
49593;BMP280;35499;51.482;4.264;2023-04-06T02:29:19;101601.59;;;7.68
49593;BMP280;35499;51.482;4.264;2023-04-06T02:31:45;101608.44;;;7.69
49593;BMP280;35499;51.482;4.264;2023-04-06T02:34:10;101607.59;;;7.70
49593;BMP280;35499;51.482;4.264;2023-04-06T02:36:37;101595.66;;;7.69
49593;BMP280;35499;51.482;4.264;2023-04-06T02:39:02;101595.69;;;7.71
49593;BMP280;35499;51.482;4.264;2023-04-06T02:41:28;101599.09;;;7.71
49593;BMP280;35499;51.482;4.264;2023-04-06T02:43:53;101597.38;;;7.73
49593;BMP280;35499;51.482;4.264;2023-04-06T02:46:19;101594.00;;;7.74
49593;BMP280;35499;51.482;4.264;2023-04-06T02:48:44;101593.13;;;7.74
49593;BMP280;35499;51.482;4.264;2023-04-06T02:51:10;101588.84;;;7.73
49593;BMP280;35499;51.482;4.264;2023-04-06T02:53:35;101586.31;;;7.71
49593;BMP280;35499;51.482;4.264;2023-04-06T02:56:00;101585.44;;;7.71
49593;BMP280;35499;51.482;4.264;2023-04-06T02:58:25;101583.72;;;7.70
49593;BMP280;35499;51.482;4.264;2023-04-06T03:00:51;101578.63;;;7.70
49593;BMP280;35499;51.482;4.264;2023-04-06T03:03:16;101576.09;;;7.71
49593;BMP280;35499;51.482;4.264;2023-04-06T03:05:42;101580.34;;;7.71
49593;BMP280;35499;51.482;4.264;2023-04-06T03:08:07;101574.34;;;7.70
49593;BMP280;35499;51.482;4.264;2023-04-06T03:10:32;101576.91;;;7.70
49593;BMP280;35499;51.482;4.264;2023-04-06T03:12:57;101574.34;;;7.70
49593;BMP280;35499;51.482;4.264;2023-04-06T03:15:23;101575.22;;;7.71
49593;BMP280;35499;51.482;4.264;2023-04-06T03:17:48;101573.56;;;7.77
49593;BMP280;35499;51.482;4.264;2023-04-06T03:20:13;101576.19;;;7.82
49593;BMP280;35499;51.482;4.264;2023-04-06T03:22:39;101573.66;;;7.89
49593;BMP280;35499;51.482;4.264;2023-04-06T03:25:05;101566.03;;;7.93
49593;BMP280;35499;51.482;4.264;2023-04-06T03:27:30;101561.78;;;7.95
49593;BMP280;35499;51.482;4.264;2023-04-06T03:29:56;101561.78;;;7.95
49593;BMP280;35499;51.482;4.264;2023-04-06T03:32:21;101566.09;;;7.98
49593;BMP280;35499;51.482;4.264;2023-04-06T03:34:47;101567.84;;;8.02
49593;BMP280;35499;51.482;4.264;2023-04-06T03:37:12;101563.56;;;7.99
49593;BMP280;35499;51.482;4.264;2023-04-06T03:39:37;101560.88;;;7.89
49593;BMP280;35499;51.482;4.264;2023-04-06T03:42:03;101563.34;;;7.76
49593;BMP280;35499;51.482;4.264;2023-04-06T03:44:28;101565.78;;;7.66
49593;BMP280;35499;51.482;4.264;2023-04-06T03:46:53;101573.41;;;7.57
49593;BMP280;35499;51.482;4.264;2023-04-06T03:49:19;101567.34;;;7.49
49593;BMP280;35499;51.482;4.264;2023-04-06T03:51:44;101561.31;;;7.43
49593;BMP280;35499;51.482;4.264;2023-04-06T03:54:10;101561.31;;;7.41
49593;BMP280;35499;51.482;4.264;2023-04-06T03:56:35;101560.44;;;7.39
49593;BMP280;35499;51.482;4.264;2023-04-06T03:59:00;101563.81;;;7.38
49593;BMP280;35499;51.482;4.264;2023-04-06T04:01:27;101560.41;;;7.36
49593;BMP280;35499;51.482;4.264;2023-04-06T04:03:53;101560.41;;;7.36
49593;BMP280;35499;51.482;4.264;2023-04-06T04:06:18;101565.50;;;7.38
49593;BMP280;35499;51.482;4.264;2023-04-06T04:08:43;101572.38;;;7.40
49593;BMP280;35499;51.482;4.264;2023-04-06T04:11:09;101566.41;;;7.43
49593;BMP280;35499;51.482;4.264;2023-04-06T04:13:34;101568.16;;;7.48
49593;BMP280;35499;51.482;4.264;2023-04-06T04:16:00;101569.97;;;7.58
49593;BMP280;35499;51.482;4.264;2023-04-06T04:18:25;101570.09;;;7.72
49593;BMP280;35499;51.482;4.264;2023-04-06T04:20:50;101569.38;;;7.85
49593;BMP280;35499;51.482;4.264;2023-04-06T04:23:16;101558.34;;;7.93
49593;BMP280;35499;51.482;4.264;2023-04-06T04:25:41;101572.97;;;8.02
49593;BMP280;35499;51.482;4.264;2023-04-06T04:28:06;101567.88;;;8.06
49593;BMP280;35499;51.482;4.264;2023-04-06T04:30:32;101574.72;;;8.10
49593;BMP280;35499;51.482;4.264;2023-04-06T04:32:57;101578.16;;;8.15
49593;BMP280;35499;51.482;4.264;2023-04-06T04:35:22;101584.16;;;8.18
49593;BMP280;35499;51.482;4.264;2023-04-06T04:37:48;101574.78;;;8.20
49593;BMP280;35499;51.482;4.264;2023-04-06T04:40:13;101571.41;;;8.21
49593;BMP280;35499;51.482;4.264;2023-04-06T04:42:39;101569.69;;;8.22
49593;BMP280;35499;51.482;4.264;2023-04-06T04:45:04;101570.53;;;8.22
49593;BMP280;35499;51.482;4.264;2023-04-06T04:47:30;101567.13;;;8.22
49593;BMP280;35499;51.482;4.264;2023-04-06T04:49:55;101561.16;;;8.21
49593;BMP280;35499;51.482;4.264;2023-04-06T04:52:20;101566.28;;;8.21
49593;BMP280;35499;51.482;4.264;2023-04-06T04:54:46;101567.13;;;8.22
49593;BMP280;35499;51.482;4.264;2023-04-06T04:57:12;101563.72;;;8.21
49593;BMP280;35499;51.482;4.264;2023-04-06T04:59:37;101557.72;;;8.22
49593;BMP280;35499;51.482;4.264;2023-04-06T05:02:02;101560.28;;;8.22
49593;BMP280;35499;51.482;4.264;2023-04-06T05:04:28;101566.25;;;8.22
49593;BMP280;35499;51.482;4.264;2023-04-06T05:07:04;101563.72;;;8.22
49593;BMP280;35499;51.482;4.264;2023-04-06T05:09:29;101562.88;;;8.25
49593;BMP280;35499;51.482;4.264;2023-04-06T05:11:56;101559.50;;;8.26
49593;BMP280;35499;51.482;4.264;2023-04-06T05:14:22;101550.09;;;8.28
49593;BMP280;35499;51.482;4.264;2023-04-06T05:16:47;101561.22;;;8.30
49593;BMP280;35499;51.482;4.264;2023-04-06T05:19:12;101552.69;;;8.31
49593;BMP280;35499;51.482;4.264;2023-04-06T05:21:38;101558.69;;;8.31
49593;BMP280;35499;51.482;4.264;2023-04-06T05:24:03;101555.25;;;8.32
49593;BMP280;35499;51.482;4.264;2023-04-06T05:26:28;101558.66;;;8.33
49593;BMP280;35499;51.482;4.264;2023-04-06T05:28:54;101550.13;;;8.32
49593;BMP280;35499;51.482;4.264;2023-04-06T05:31:20;101552.69;;;8.32
49593;BMP280;35499;51.482;4.264;2023-04-06T05:33:45;101556.97;;;8.33
49593;BMP280;35499;51.482;4.264;2023-04-06T05:36:10;101552.69;;;8.34
49593;BMP280;35499;51.482;4.264;2023-04-06T05:38:36;101554.41;;;8.35
49593;BMP280;35499;51.482;4.264;2023-04-06T05:41:02;101551.03;;;8.36
49593;BMP280;35499;51.482;4.264;2023-04-06T05:43:27;101551.88;;;8.38
49593;BMP280;35499;51.482;4.264;2023-04-06T05:45:52;101554.47;;;8.40
49593;BMP280;35499;51.482;4.264;2023-04-06T05:48:18;101554.44;;;8.42
49593;BMP280;35499;51.482;4.264;2023-04-06T05:50:48;101557.03;;;8.43
49593;BMP280;35499;51.482;4.264;2023-04-06T05:53:14;101557.91;;;8.45
49593;BMP280;35499;51.482;4.264;2023-04-06T05:55:40;101556.19;;;8.47
49593;BMP280;35499;51.482;4.264;2023-04-06T05:58:05;101551.94;;;8.49
49593;BMP280;35499;51.482;4.264;2023-04-06T06:00:30;101558.81;;;8.52
49593;BMP280;35499;51.482;4.264;2023-04-06T06:02:56;101557.09;;;8.54
49593;BMP280;35499;51.482;4.264;2023-04-06T06:05:21;101548.56;;;8.55
49593;BMP280;35499;51.482;4.264;2023-04-06T06:07:46;101551.13;;;8.56
49593;BMP280;35499;51.482;4.264;2023-04-06T06:10:12;101557.09;;;8.58
49593;BMP280;35499;51.482;4.264;2023-04-06T06:12:37;101551.13;;;8.59
49593;BMP280;35499;51.482;4.264;2023-04-06T06:15:03;101552.84;;;8.60
49593;BMP280;35499;51.482;4.264;2023-04-06T06:17:28;101546.91;;;8.61
49593;BMP280;35499;51.482;4.264;2023-04-06T06:19:54;101546.88;;;8.62
49593;BMP280;35499;51.482;4.264;2023-04-06T06:22:19;101546.88;;;8.62
49593;BMP280;35499;51.482;4.264;2023-04-06T06:24:45;101547.75;;;8.63
49593;BMP280;35499;51.482;4.264;2023-04-06T06:27:10;101546.91;;;8.61
49593;BMP280;35499;51.482;4.264;2023-04-06T06:29:35;101543.47;;;8.60
49593;BMP280;35499;51.482;4.264;2023-04-06T06:32:00;101544.31;;;8.58
49593;BMP280;35499;51.482;4.264;2023-04-06T06:34:26;101540.88;;;8.55
49593;BMP280;35499;51.482;4.264;2023-04-06T06:36:51;101544.25;;;8.52
49593;BMP280;35499;51.482;4.264;2023-04-06T06:39:16;101545.13;;;8.50
49593;BMP280;35499;51.482;4.264;2023-04-06T06:41:42;101545.94;;;8.44
49593;BMP280;35499;51.482;4.264;2023-04-06T06:44:07;101551.88;;;8.42
49593;BMP280;35499;51.482;4.264;2023-04-06T06:46:32;101551.03;;;8.39
49593;BMP280;35499;51.482;4.264;2023-04-06T06:48:58;101551.88;;;8.36
49593;BMP280;35499;51.482;4.264;2023-04-06T06:51:23;101550.97;;;8.33
49593;BMP280;35499;51.482;4.264;2023-04-06T06:53:49;101549.25;;;8.29
49593;BMP280;35499;51.482;4.264;2023-04-06T06:56:14;101558.59;;;8.22
49593;BMP280;35499;51.482;4.264;2023-04-06T06:58:39;101552.63;;;8.19
49593;BMP280;35499;51.482;4.264;2023-04-06T07:01:05;101553.44;;;8.15
49593;BMP280;35499;51.482;4.264;2023-04-06T07:03:30;101552.56;;;8.10
49593;BMP280;35499;51.482;4.264;2023-04-06T07:05:55;101551.69;;;8.08
49593;BMP280;35499;51.482;4.264;2023-04-06T07:08:22;101552.50;;;8.04
49593;BMP280;35499;51.482;4.264;2023-04-06T07:10:48;101549.94;;;8.04
49593;BMP280;35499;51.482;4.264;2023-04-06T07:13:14;101555.06;;;8.04
49593;BMP280;35499;51.482;4.264;2023-04-06T07:15:45;101557.63;;;8.04
49593;BMP280;35499;51.482;4.264;2023-04-06T07:18:11;101546.56;;;8.05
49593;BMP280;35499;51.482;4.264;2023-04-06T07:20:36;101555.88;;;8.02
49593;BMP280;35499;51.482;4.264;2023-04-06T07:23:02;101547.31;;;7.96
49593;BMP280;35499;51.482;4.264;2023-04-06T07:25:27;101548.97;;;7.94
49593;BMP280;35499;51.482;4.264;2023-04-06T07:27:53;101539.59;;;7.91
49593;BMP280;35499;51.482;4.264;2023-04-06T07:30:18;101537.88;;;7.89
49593;BMP280;35499;51.482;4.264;2023-04-06T07:32:44;101547.22;;;7.87
49593;BMP280;35499;51.482;4.264;2023-04-06T07:35:10;101534.41;;;7.87
49593;BMP280;35499;51.482;4.264;2023-04-06T07:37:35;101548.13;;;7.90
49593;BMP280;35499;51.482;4.264;2023-04-06T07:40:01;101537.88;;;7.93
49593;BMP280;35499;51.482;4.264;2023-04-06T07:42:26;101544.78;;;7.99
49593;BMP280;35499;51.482;4.264;2023-04-06T07:44:51;101527.75;;;7.99
49593;BMP280;35499;51.482;4.264;2023-04-06T07:47:17;101541.41;;;8.03
49593;BMP280;35499;51.482;4.264;2023-04-06T07:49:42;101528.63;;;8.04
49593;BMP280;35499;51.482;4.264;2023-04-06T07:52:07;101528.66;;;8.05
49593;BMP280;35499;51.482;4.264;2023-04-06T07:54:33;101526.97;;;8.10
49593;BMP280;35499;51.482;4.264;2023-04-06T07:56:58;101527.00;;;8.15
49593;BMP280;35499;51.482;4.264;2023-04-06T07:59:23;101524.47;;;8.16
49593;BMP280;35499;51.482;4.264;2023-04-06T08:01:49;101520.22;;;8.21
49593;BMP280;35499;51.482;4.264;2023-04-06T08:04:14;101518.56;;;8.26
49593;BMP280;35499;51.482;4.264;2023-04-06T08:06:39;101521.16;;;8.32
49593;BMP280;35499;51.482;4.264;2023-04-06T08:09:06;101513.47;;;8.38
49593;BMP280;35499;51.482;4.264;2023-04-06T08:11:31;101511.81;;;8.47
49593;BMP280;35499;51.482;4.264;2023-04-06T08:13:57;101510.19;;;8.56
49593;BMP280;35499;51.482;4.264;2023-04-06T08:16:23;101511.03;;;8.58
49593;BMP280;35499;51.482;4.264;2023-04-06T08:18:49;101522.13;;;8.63
49593;BMP280;35499;51.482;4.264;2023-04-06T08:21:14;101510.22;;;8.68
49593;BMP280;35499;51.482;4.264;2023-04-06T08:23:39;101509.38;;;8.69
49593;BMP280;35499;51.482;4.264;2023-04-06T08:26:05;101505.09;;;8.68
49593;BMP280;35499;51.482;4.264;2023-04-06T08:28:30;101527.28;;;8.64
49593;BMP280;35499;51.482;4.264;2023-04-06T08:30:56;101522.13;;;8.63
49593;BMP280;35499;51.482;4.264;2023-04-06T08:33:21;101521.28;;;8.64
49593;BMP280;35499;51.482;4.264;2023-04-06T08:35:46;101508.50;;;8.64
49593;BMP280;35499;51.482;4.264;2023-04-06T08:38:14;101528.13;;;8.65
49593;BMP280;35499;51.482;4.264;2023-04-06T08:40:40;101522.13;;;8.63
49593;BMP280;35499;51.482;4.264;2023-04-06T08:43:13;101521.28;;;8.61
49593;BMP280;35499;51.482;4.264;2023-04-06T08:45:40;101529.81;;;8.56
49593;BMP280;35499;51.482;4.264;2023-04-06T08:48:09;101518.66;;;8.52
49593;BMP280;35499;51.482;4.264;2023-04-06T08:50:38;101514.38;;;8.48
49593;BMP280;35499;51.482;4.264;2023-04-06T08:53:03;101507.56;;;8.49
49593;BMP280;35499;51.482;4.264;2023-04-06T08:55:30;101508.44;;;8.46
49593;BMP280;35499;51.482;4.264;2023-04-06T08:57:56;101510.13;;;8.41
49593;BMP280;35499;51.482;4.264;2023-04-06T09:04:37;101510.06;;;8.39
49593;BMP280;35499;51.482;4.264;2023-04-06T09:07:03;101505.00;;;8.41
49593;BMP280;35499;51.482;4.264;2023-04-06T09:09:28;101504.13;;;8.47
49593;BMP280;35499;51.482;4.264;2023-04-06T09:11:53;101508.41;;;8.45
49593;BMP280;35499;51.482;4.264;2023-04-06T09:14:36;101524.63;;;8.45
49593;BMP280;35499;51.482;4.264;2023-04-06T09:17:02;101510.13;;;8.47
49593;BMP280;35499;51.482;4.264;2023-04-06T09:19:28;101516.94;;;8.45
49593;BMP280;35499;51.482;4.264;2023-04-06T09:22:04;101510.13;;;8.46
49593;BMP280;35499;51.482;4.264;2023-04-06T09:24:40;101511.84;;;8.45
49593;BMP280;35499;51.482;4.264;2023-04-06T09:27:05;101513.56;;;8.46
49593;BMP280;35499;51.482;4.264;2023-04-06T09:29:31;101508.44;;;8.46
49593;BMP280;35499;51.482;4.264;2023-04-06T09:32:07;101506.72;;;8.45
49593;BMP280;35499;51.482;4.264;2023-04-06T09:34:35;101509.28;;;8.45
49593;BMP280;35499;51.482;4.264;2023-04-06T09:37:00;101498.19;;;8.46
49593;BMP280;35499;51.482;4.264;2023-04-06T09:39:26;101497.31;;;8.44
49593;BMP280;35499;51.482;4.264;2023-04-06T09:41:54;101493.88;;;8.38
49593;BMP280;35499;51.482;4.264;2023-04-06T09:44:19;101495.59;;;8.39
49593;BMP280;35499;51.482;4.264;2023-04-06T09:46:46;101499.84;;;8.39
49593;BMP280;35499;51.482;4.264;2023-04-06T09:49:12;101493.00;;;8.35
49593;BMP280;35499;51.482;4.264;2023-04-06T09:51:49;101491.28;;;8.34
49593;BMP280;35499;51.482;4.264;2023-04-06T09:54:19;101485.34;;;8.38
49593;BMP280;35499;51.482;4.264;2023-04-06T09:56:47;101487.06;;;8.43
49593;BMP280;35499;51.482;4.264;2023-04-06T09:59:25;101472.56;;;8.43
49593;BMP280;35499;51.482;4.264;2023-04-06T10:01:58;101473.41;;;8.47
49593;BMP280;35499;51.482;4.264;2023-04-06T10:04:41;101482.00;;;8.52
49593;BMP280;35499;51.482;4.264;2023-04-06T10:07:09;101470.03;;;8.48
49593;BMP280;35499;51.482;4.264;2023-04-06T10:09:37;101476.84;;;8.46
49593;BMP280;35499;51.482;4.264;2023-04-06T10:12:06;101476.03;;;8.51
49593;BMP280;35499;51.482;4.264;2023-04-06T10:14:33;101470.94;;;8.56
49593;BMP280;35499;51.482;4.264;2023-04-06T10:17:01;101475.19;;;8.59
49593;BMP280;35499;51.482;4.264;2023-04-06T10:19:30;101472.66;;;8.61
49593;BMP280;35499;51.482;4.264;2023-04-06T10:21:57;101469.22;;;8.62
49593;BMP280;35499;51.482;4.264;2023-04-06T10:24:23;101464.13;;;8.68
49593;BMP280;35499;51.482;4.264;2023-04-06T10:27:02;101465.00;;;8.73
49593;BMP280;35499;51.482;4.264;2023-04-06T10:29:28;101457.31;;;8.70
49593;BMP280;35499;51.482;4.264;2023-04-06T10:32:05;101470.13;;;8.76
49593;BMP280;35499;51.482;4.264;2023-04-06T10:34:36;101454.78;;;8.80
49593;BMP280;35499;51.482;4.264;2023-04-06T10:37:15;101453.94;;;8.76
49593;BMP280;35499;51.482;4.264;2023-04-06T10:40:17;101452.25;;;8.81
49593;BMP280;35499;51.482;4.264;2023-04-06T10:42:43;101444.53;;;8.83
49593;BMP280;35499;51.482;4.264;2023-04-06T10:45:27;101447.13;;;8.81
49593;BMP280;35499;51.482;4.264;2023-04-06T10:47:56;101447.13;;;8.81
49593;BMP280;35499;51.482;4.264;2023-04-06T10:50:22;101446.25;;;8.82
49593;BMP280;35499;51.482;4.264;2023-04-06T10:53:02;101443.69;;;8.82
49593;BMP280;35499;51.482;4.264;2023-04-06T10:55:28;101445.38;;;8.79
49593;BMP280;35499;51.482;4.264;2023-04-06T10:57:53;101441.13;;;8.76
49593;BMP280;35499;51.482;4.264;2023-04-06T11:00:20;101434.28;;;8.76
49593;BMP280;35499;51.482;4.264;2023-04-06T11:02:45;101436.81;;;8.70
49593;BMP280;35499;51.482;4.264;2023-04-06T11:05:11;101424.03;;;8.65
49593;BMP280;35499;51.482;4.264;2023-04-06T11:07:37;101429.13;;;8.64
49593;BMP280;35499;51.482;4.264;2023-04-06T11:10:02;101417.16;;;8.58
49593;BMP280;35499;51.482;4.264;2023-04-06T11:12:28;101432.53;;;8.56
49593;BMP280;35499;51.482;4.264;2023-04-06T11:14:56;101430.78;;;8.47
49593;BMP280;35499;51.482;4.264;2023-04-06T11:17:28;101435.88;;;8.43
49593;BMP280;35499;51.482;4.264;2023-04-06T11:19:55;101429.06;;;8.43
49593;BMP280;35499;51.482;4.264;2023-04-06T11:22:20;101426.47;;;8.42
49593;BMP280;35499;51.482;4.264;2023-04-06T11:24:45;101434.19;;;8.40
49593;BMP280;35499;51.482;4.264;2023-04-06T11:27:11;101434.16;;;8.42
49593;BMP280;35499;51.482;4.264;2023-04-06T11:29:37;101437.59;;;8.44
49593;BMP280;35499;51.482;4.264;2023-04-06T11:32:06;101429.03;;;8.39
49593;BMP280;35499;51.482;4.264;2023-04-06T11:34:34;101429.06;;;8.43
49593;BMP280;35499;51.482;4.264;2023-04-06T11:37:03;101433.34;;;8.44
49593;BMP280;35499;51.482;4.264;2023-04-06T11:39:31;101435.03;;;8.40
49593;BMP280;35499;51.482;4.264;2023-04-06T11:41:59;101423.06;;;8.39
49593;BMP280;35499;51.482;4.264;2023-04-06T11:47:00;101429.03;;;8.39
49593;BMP280;35499;51.482;4.264;2023-04-06T11:49:30;101429.06;;;8.43
49593;BMP280;35499;51.482;4.264;2023-04-06T11:51:56;101420.53;;;8.44
49593;BMP280;35499;51.482;4.264;2023-04-06T11:54:35;101411.19;;;8.46
49593;BMP280;35499;51.482;4.264;2023-04-06T11:57:02;101406.06;;;8.55
49593;BMP280;35499;51.482;4.264;2023-04-06T11:59:28;101411.19;;;8.58
49593;BMP280;35499;51.482;4.264;2023-04-06T12:01:53;101407.78;;;8.59
49593;BMP280;35499;51.482;4.264;2023-04-06T12:04:20;101391.59;;;8.66
49593;BMP280;35499;51.482;4.264;2023-04-06T12:06:45;101397.56;;;8.68
49593;BMP280;35499;51.482;4.264;2023-04-06T12:09:11;101406.09;;;8.70
49593;BMP280;35499;51.482;4.264;2023-04-06T12:11:36;101391.59;;;8.73
49593;BMP280;35499;51.482;4.264;2023-04-06T12:14:01;101396.72;;;8.79
49593;BMP280;35499;51.482;4.264;2023-04-06T12:16:30;101387.34;;;8.82
49593;BMP280;35499;51.482;4.264;2023-04-06T12:18:55;101393.34;;;8.81
49593;BMP280;35499;51.482;4.264;2023-04-06T12:21:21;101382.22;;;8.79
49593;BMP280;35499;51.482;4.264;2023-04-06T12:23:46;101380.50;;;8.74
49593;BMP280;35499;51.482;4.264;2023-04-06T12:26:11;101384.75;;;8.72
49593;BMP280;35499;51.482;4.264;2023-04-06T12:28:37;101383.09;;;8.76
49593;BMP280;35499;51.482;4.264;2023-04-06T12:31:02;101389.03;;;8.77
49593;BMP280;35499;51.482;4.264;2023-04-06T12:33:27;101385.63;;;8.76
49593;BMP280;35499;51.482;4.264;2023-04-06T12:35:53;101377.09;;;8.79
49593;BMP280;35499;51.482;4.264;2023-04-06T12:38:18;101367.72;;;8.81
49593;BMP280;35499;51.482;4.264;2023-04-06T12:40:43;101373.69;;;8.83
49593;BMP280;35499;51.482;4.264;2023-04-06T12:43:09;101360.91;;;8.86
49593;BMP280;35499;51.482;4.264;2023-04-06T12:45:34;101363.47;;;8.86
49593;BMP280;35499;51.482;4.264;2023-04-06T12:48:00;101356.63;;;8.85
49593;BMP280;35499;51.482;4.264;2023-04-06T12:50:25;101371.97;;;8.88
49593;BMP280;35499;51.482;4.264;2023-04-06T12:52:51;101352.34;;;8.89
49593;BMP280;35499;51.482;4.264;2023-04-06T12:55:17;101360.03;;;8.87
49593;BMP280;35499;51.482;4.264;2023-04-06T12:57:42;101358.31;;;8.88
49593;BMP280;35499;51.482;4.264;2023-04-06T13:00:08;101357.47;;;8.89
49593;BMP280;35499;51.482;4.264;2023-04-06T13:02:33;101348.97;;;8.91
49593;BMP280;35499;51.482;4.264;2023-04-06T13:04:59;101354.91;;;8.93
49593;BMP280;35499;51.482;4.264;2023-04-06T13:07:24;101354.06;;;8.93
49593;BMP280;35499;51.482;4.264;2023-04-06T13:09:51;101356.63;;;8.94
49593;BMP280;35499;51.482;4.264;2023-04-06T13:12:16;101355.78;;;8.96
49593;BMP280;35499;51.482;4.264;2023-04-06T13:14:41;101354.94;;;8.96
49593;BMP280;35499;51.482;4.264;2023-04-06T13:17:07;101337.84;;;8.95
49593;BMP280;35499;51.482;4.264;2023-04-06T13:19:32;101341.25;;;8.94
49593;BMP280;35499;51.482;4.264;2023-04-06T13:21:58;101343.81;;;8.97
49593;BMP280;35499;51.482;4.264;2023-04-06T13:24:23;101337.84;;;8.98
49593;BMP280;35499;51.482;4.264;2023-04-06T13:26:49;101340.41;;;9.01
49593;BMP280;35499;51.482;4.264;2023-04-06T13:29:14;101334.41;;;9.02
49593;BMP280;35499;51.482;4.264;2023-04-06T13:31:40;101336.97;;;9.03
49593;BMP280;35499;51.482;4.264;2023-04-06T13:34:06;101342.13;;;9.05
49593;BMP280;35499;51.482;4.264;2023-04-06T13:36:31;101346.38;;;9.07
49593;BMP280;35499;51.482;4.264;2023-04-06T13:38:58;101341.25;;;9.09
49593;BMP280;35499;51.482;4.264;2023-04-06T13:41:24;101338.69;;;9.10
49593;BMP280;35499;51.482;4.264;2023-04-06T13:43:51;101329.31;;;9.11
49593;BMP280;35499;51.482;4.264;2023-04-06T13:46:17;101324.19;;;9.11
49593;BMP280;35499;51.482;4.264;2023-04-06T13:48:42;101333.56;;;9.11
49593;BMP280;35499;51.482;4.264;2023-04-06T13:51:12;101330.16;;;9.14
49593;BMP280;35499;51.482;4.264;2023-04-06T13:53:38;101328.44;;;9.14
49593;BMP280;35499;51.482;4.264;2023-04-06T13:56:03;101325.03;;;9.15
49593;BMP280;35499;51.482;4.264;2023-04-06T13:58:29;101328.47;;;9.16
49593;BMP280;35499;51.482;4.264;2023-04-06T14:00:54;101325.03;;;9.18
49593;BMP280;35499;51.482;4.264;2023-04-06T14:03:21;101330.16;;;9.15
49593;BMP280;35499;51.482;4.264;2023-04-06T14:05:47;101322.47;;;9.15
49593;BMP280;35499;51.482;4.264;2023-04-06T14:08:12;101319.91;;;9.15
49593;BMP280;35499;51.482;4.264;2023-04-06T14:10:39;101321.59;;;9.18